Terminal Aerodrome Forecast
Issued by NWS Twin Cities, MN

Home | Current Version | Previous Version | Graphics & Text | Print | Product List | Glossary On
Versions: 1 2 3 4 5 6 7 8 9 10 11 12 13 14 15 16 17 18 19 20
000
FTUS43 KMPX 080345 AAA
TAFSTC
TAF AMD
KSTC 080345Z 0804/0824 27008KT P6SM OVC080
     FM080800 30005KT P6SM OVC020
     FM082200 29012KT P6SM OVC015 PROB30 0822/0824 2SM -SN=

USA.gov is the U.S. government's official web portal to all federal, state and local government web resources and services.